createdAt,value
2022-09-28T00:01:20.087Z,96344.50
2022-09-28T00:06:24.879Z,96333.03
2022-09-28T00:11:28.430Z,96326.72
2022-09-28T00:16:34.561Z,96305.75
2022-09-28T00:21:40.287Z,96302.31
2022-09-28T00:26:44.585Z,96292.56
2022-09-28T00:31:48.368Z,96273.69
2022-09-28T00:36:51.459Z,96269.34
2022-09-28T00:41:54.868Z,96255.06
2022-09-28T00:47:14.418Z,96239.50
2022-09-28T00:52:26.833Z,96241.44
2022-09-28T00:57:30.473Z,96212.25
2022-09-28T01:02:33.021Z,96201.63
2022-09-28T01:07:37.228Z,96198.88
2022-09-28T01:12:39.731Z,96173.31
2022-09-28T01:17:53.552Z,96160.91
2022-09-28T01:23:31.988Z,96170.13
2022-09-28T01:28:37.936Z,96154.25
2022-09-28T01:33:48.561Z,96151.59
2022-09-28T01:39:09.465Z,96137.09
2022-09-28T01:44:17.152Z,96131.66
2022-09-28T01:49:27.865Z,96125.31
2022-09-28T01:54:38.190Z,96121.97
2022-09-28T01:59:46.534Z,96107.41
2022-09-28T02:04:56.369Z,96101.06
2022-09-28T02:10:05.608Z,96094.69
2022-09-28T02:15:41.112Z,96076.94
2022-09-28T02:20:50.467Z,96074.78
2022-09-28T02:26:01.940Z,96079.75
2022-09-28T02:31:04.634Z,96073.59
2022-09-28T02:36:07.606Z,96060.28
2022-09-28T02:41:23.488Z,96045.53
2022-09-28T02:46:42.866Z,96055.78
2022-09-28T02:52:06.286Z,96046.06
2022-09-28T02:57:30.231Z,96043.06
2022-09-28T03:02:36.685Z,96029.97
2022-09-28T03:08:03.193Z,96040.66
2022-09-28T03:13:07.610Z,96029.72
2022-09-28T03:18:11.442Z,96013.53
2022-09-28T03:23:24.799Z,96021.47
2022-09-28T03:28:28.044Z,96017.28
2022-09-28T03:33:30.448Z,96019.69
2022-09-28T03:38:33.003Z,96022.06
2022-09-28T03:43:35.972Z,96019.06
2022-09-28T03:48:41.580Z,96030.22
2022-09-28T03:53:46.512Z,96022.34
2022-09-28T03:58:49.436Z,96031.16
2022-09-28T04:03:56.075Z,96028.16
2022-09-28T04:08:58.998Z,96045.31
2022-09-28T04:14:01.757Z,96043.78
2022-09-28T04:19:05.801Z,96047.91
2022-09-28T04:24:14.660Z,96047.44
2022-09-28T04:29:17.904Z,96043.13
2022-09-28T04:34:33.171Z,96048.91
2022-09-28T04:39:37.996Z,96052.31
2022-09-28T04:44:42.140Z,96062.69
2022-09-28T04:49:45.755Z,96061.84
2022-09-28T04:55:00.569Z,96066.25
2022-09-28T05:00:03.875Z,96061.13
2022-09-28T05:05:09.553Z,96050.44
2022-09-28T05:10:20.711Z,96053.25
2022-09-28T05:15:23.094Z,96050.44
2022-09-28T05:20:25.523Z,96050.66
2022-09-28T05:25:28.097Z,96070.13
2022-09-28T05:30:52.476Z,96071.63
2022-09-28T05:36:27.998Z,96058.31
2022-09-28T05:41:30.543Z,96068.44
2022-09-28T05:46:33.126Z,96074.81
2022-09-28T05:51:37.141Z,96091.19
2022-09-28T05:56:39.571Z,96086.31
2022-09-28T06:01:43.434Z,96092.59
2022-09-28T06:06:47.699Z,96093.38
2022-09-28T06:11:51.187Z,96097.09
2022-09-28T06:17:00.228Z,96085.47
2022-09-28T06:22:02.871Z,96096.72
2022-09-28T06:27:07.971Z,96100.75
2022-09-28T06:32:12.430Z,96110.56
2022-09-28T06:37:18.694Z,96111.50
2022-09-28T06:42:22.076Z,96116.00
2022-09-28T06:47:44.825Z,96113.59
2022-09-28T06:52:57.260Z,96120.50
2022-09-28T06:58:12.022Z,96134.38
2022-09-28T07:03:17.178Z,96143.91
2022-09-28T07:08:31.637Z,96152.06
2022-09-28T07:13:53.993Z,96161.66
2022-09-28T07:18:58.807Z,96176.44
2022-09-28T07:24:01.510Z,96177.84
2022-09-28T07:29:13.317Z,96172.63
2022-09-28T07:34:43.858Z,96189.09
2022-09-28T07:40:28.335Z,96197.31
2022-09-28T07:45:34.107Z,96205.22
2022-09-28T07:50:36.764Z,96203.91
2022-09-28T07:55:55.844Z,96203.66
2022-09-28T08:01:11.960Z,96206.19
2022-09-28T08:06:19.188Z,96217.03
2022-09-28T08:11:21.436Z,96219.00
2022-09-28T08:17:02.411Z,96230.03
2022-09-28T08:22:14.523Z,96241.44
2022-09-28T08:27:18.490Z,96241.78
2022-09-28T08:32:21.618Z,96249.09
2022-09-28T08:37:59.304Z,96251.13
2022-09-28T08:44:00.628Z,96252.28
2022-09-28T08:49:47.575Z,96255.59
2022-09-28T08:55:34.454Z,96269.63
2022-09-28T09:00:47.646Z,96277.53
2022-09-28T09:06:18.858Z,96287.47
2022-09-28T09:11:43.933Z,96282.44
2022-09-28T09:17:01.624Z,96300.53
2022-09-28T09:22:42.617Z,96299.91
2022-09-28T09:27:53.493Z,96298.56
2022-09-28T09:33:30.736Z,96308.91
2022-09-28T09:38:59.897Z,96305.22
2022-09-28T09:44:52.419Z,96317.06
2022-09-28T09:50:30.144Z,96329.06
2022-09-28T09:55:40.725Z,96328.91
2022-09-28T10:01:10.952Z,96329.69
2022-09-28T10:06:39.180Z,96328.53
2022-09-28T10:11:46.402Z,96326.09
2022-09-28T10:16:53.783Z,96328.09
2022-09-28T10:22:23.239Z,96319.22
2022-09-28T10:27:31.967Z,96316.97
2022-09-28T10:32:39.653Z,96322.50
2022-09-28T10:38:03.347Z,96321.78
2022-09-28T10:43:38.537Z,96332.09
2022-09-28T10:49:07.023Z,96329.63
2022-09-28T10:54:16.587Z,96331.44
2022-09-28T10:59:30.808Z,96330.81
2022-09-28T11:05:02.083Z,96331.75
2022-09-28T11:10:26.146Z,96331.06
2022-09-28T11:15:37.807Z,96329.63
2022-09-28T11:20:44.799Z,96328.97
2022-09-28T11:26:07.155Z,96326.22
2022-09-28T11:31:10.418Z,96322.28
2022-09-28T11:36:49.798Z,96328.84
2022-09-28T11:42:07.671Z,96313.81
2022-09-28T11:47:37.710Z,96311.16
2022-09-28T11:53:00.520Z,96304.84
2022-09-28T11:58:11.784Z,96312.38
2022-09-28T12:03:25.180Z,96306.91
2022-09-28T12:08:30.272Z,96311.66
2022-09-28T12:13:44.761Z,96314.53
2022-09-28T12:19:05.658Z,96308.38
2022-09-28T12:24:23.660Z,96313.88
2022-09-28T12:29:41.749Z,96305.38
2022-09-28T12:34:44.703Z,96304.78
2022-09-28T12:40:00.291Z,96303.28
2022-09-28T12:45:38.929Z,96300.19
2022-09-28T12:50:57.632Z,96300.44
2022-09-28T12:56:29.549Z,96296.28
2022-09-28T13:01:44.629Z,96297.34
2022-09-28T13:06:47.364Z,96302.81
2022-09-28T13:12:07.909Z,96302.34
2022-09-28T13:17:19.234Z,96301.38
2022-09-28T13:22:34.109Z,96300.16
2022-09-28T13:27:40.847Z,96296.88
2022-09-28T13:32:44.875Z,96289.66
2022-09-28T13:37:49.013Z,96302.50
2022-09-28T13:43:06.837Z,96305.69
2022-09-28T13:48:12.319Z,96303.66
2022-09-28T13:53:32.851Z,96301.94
2022-09-28T13:58:47.100Z,96306.28
2022-09-28T14:04:12.444Z,96308.66
2022-09-28T14:09:21.118Z,96318.88
2022-09-28T14:14:52.001Z,96323.13
2022-09-28T14:20:00.828Z,96324.34
2022-09-28T14:25:23.727Z,96320.38
2022-09-28T14:30:43.462Z,96315.22
2022-09-28T14:35:52.035Z,96324.38
2022-09-28T14:41:10.872Z,96327.31
2022-09-28T14:46:19.369Z,96330.38
2022-09-28T14:51:30.194Z,96334.88
2022-09-28T14:56:46.160Z,96325.34
2022-09-28T15:02:12.499Z,96325.97
2022-09-28T15:07:27.134Z,96327.22
2022-09-28T15:12:32.743Z,96331.13
2022-09-28T15:17:39.966Z,96328.53
2022-09-28T15:22:47.863Z,96328.81
2022-09-28T15:27:55.763Z,96327.97
2022-09-28T15:33:18.957Z,96326.63
2022-09-28T15:38:21.522Z,96329.56
2022-09-28T15:43:29.125Z,96341.00
2022-09-28T15:48:46.611Z,96344.75
2022-09-28T15:54:01.096Z,96348.63
2022-09-28T15:59:15.460Z,96357.50
2022-09-28T16:04:39.442Z,96354.47
2022-09-28T16:10:00.346Z,96359.13
2022-09-28T16:15:14.271Z,96352.06
2022-09-28T16:20:48.261Z,96356.81
2022-09-28T16:26:02.057Z,96355.66
2022-09-28T16:31:13.668Z,96355.66
2022-09-28T16:36:17.662Z,96359.06
2022-09-28T16:41:24.899Z,96350.22
2022-09-28T16:46:37.614Z,96360.31
2022-09-28T16:51:40.225Z,96365.84
2022-09-28T16:56:42.665Z,96372.13
2022-09-28T17:01:45.138Z,96366.78
2022-09-28T17:06:47.961Z,96370.81
2022-09-28T17:11:57.064Z,96386.50
2022-09-28T17:17:09.009Z,96383.06
2022-09-28T17:22:14.203Z,96391.72
2022-09-28T17:27:20.989Z,96394.56
2022-09-28T17:32:23.023Z,96397.28
2022-09-28T17:37:25.015Z,96400.97
2022-09-28T17:42:27.287Z,96403.19
2022-09-28T17:47:34.087Z,96409.78
2022-09-28T17:52:36.384Z,96416.56
2022-09-28T17:57:38.532Z,96413.16
2022-09-28T18:02:41.763Z,96423.00
2022-09-28T18:07:47.590Z,96422.53
2022-09-28T18:12:51.152Z,96432.88
2022-09-28T18:17:53.419Z,96439.28
2022-09-28T18:22:55.851Z,96432.81
2022-09-28T18:28:00.101Z,96445.44
2022-09-28T18:33:02.523Z,96440.75
2022-09-28T18:38:06.358Z,96447.88
2022-09-28T18:43:08.820Z,96464.53
2022-09-28T18:48:11.195Z,96470.47
2022-09-28T18:53:13.693Z,96473.63
2022-09-28T18:58:16.264Z,96474.28
2022-09-28T19:03:19.265Z,96477.06
2022-09-28T19:08:25.497Z,96482.84
2022-09-28T19:13:30.081Z,96485.19
2022-09-28T19:18:32.568Z,96484.47
2022-09-28T19:23:36.223Z,96486.31
2022-09-28T19:28:38.711Z,96496.88
2022-09-28T19:33:41.860Z,96495.66
2022-09-28T19:38:44.801Z,96503.06
2022-09-28T19:43:47.697Z,96498.72
2022-09-28T19:48:50.223Z,96500.53
2022-09-28T19:53:52.691Z,96508.34
2022-09-28T19:58:55.156Z,96509.09
2022-09-28T20:03:59.183Z,96512.88
2022-09-28T20:09:01.638Z,96516.50
2022-09-28T20:14:09.817Z,96519.38
2022-09-28T20:19:12.987Z,96524.34
2022-09-28T20:24:17.387Z,96528.28
2022-09-28T20:29:20.337Z,96523.16
2022-09-28T20:34:22.810Z,96527.53
2022-09-28T20:39:25.279Z,96531.00
2022-09-28T20:44:28.036Z,96535.84
2022-09-28T20:49:31.243Z,96533.41
2022-09-28T20:54:33.685Z,96540.81
2022-09-28T20:59:36.078Z,96530.69
2022-09-28T21:04:39.094Z,96532.38
2022-09-28T21:09:41.557Z,96532.66
2022-09-28T21:14:43.952Z,96535.22
2022-09-28T21:19:46.507Z,96532.81
2022-09-28T21:24:49.329Z,96527.53
2022-09-28T21:29:51.819Z,96526.16
2022-09-28T21:34:54.419Z,96531.16
2022-09-28T21:39:56.836Z,96525.25
2022-09-28T21:44:59.625Z,96523.19
2022-09-28T21:50:02.088Z,96524.66
2022-09-28T21:55:04.785Z,96526.16
2022-09-28T22:00:08.077Z,96527.97
2022-09-28T22:05:11.823Z,96513.06
2022-09-28T22:10:15.421Z,96508.25
2022-09-28T22:15:18.312Z,96513.50
2022-09-28T22:20:20.935Z,96518.94
2022-09-28T22:25:23.307Z,96517.41
2022-09-28T22:30:25.684Z,96523.16
2022-09-28T22:35:28.094Z,96520.72
2022-09-28T22:40:30.577Z,96519.44
2022-09-28T22:45:33.008Z,96522.00
2022-09-28T22:50:35.443Z,96515.53
2022-09-28T22:55:37.839Z,96515.63
2022-09-28T23:00:40.688Z,96514.91
2022-09-28T23:05:51.316Z,96523.22
2022-09-28T23:10:53.764Z,96516.59
2022-09-28T23:16:20.852Z,96517.75
2022-09-28T23:21:25.823Z,96517.13
2022-09-28T23:26:31.901Z,96517.78
2022-09-28T23:31:34.425Z,96517.25
2022-09-28T23:36:36.879Z,96526.63
2022-09-28T23:41:39.951Z,96524.94
2022-09-28T23:46:43.032Z,96511.66
2022-09-28T23:51:45.788Z,96513.72
2022-09-28T23:56:48.688Z,96520.63
